White Mountain Summit Weather observations

Data are for 10 minute period ending at time listed.
 Day   Time   Solar   Ave.   Ave.  Ave.  Vector    Max.    Baro.  
  of    of     Rad.   Air    Rel.  Wind   Wind     Wind   Press.  
Year   Day            Temp.  Hum.  Speed  Dir.     Gust           
2016   (PST)   W/m2    F      %     mph   deg.      mph     mb.   
-------------------------------------------------------------------
 271   15:30    0.0    54   24.5     7    260.4     9.4   606.8 
 271   15:40    0.0    54   24.5     6    247.6     9.4   606.7 
 271   15:50    0.0    53   25.4    10    264.7    14.1   606.7 
 271   16:00    0.0    53   25.6    10    262.5    14.1   606.7 
 271   16:10    0.0    53   25.5    11    261.1    16.5   606.7 
 271   16:20    0.0    53   25.8    12    262.6    16.5   606.6 
 271   16:30    0.0    52   26.5    12    265.6    16.5   606.6 
 271   16:40    0.0    51   26.8    13    264.0    16.5   606.6 
 271   16:50    0.0    50   28.0    13    267.4    18.8   606.6 
 271   17:00    0.0    49   28.6    12    266.5    18.8   606.5 
 271   17:10    0.0    48   28.5    11    266.0    16.5   606.5 
 271   17:20    0.0    48   29.0     9    265.8    14.1   606.5 
 271   17:30    0.0    48   28.7    11    265.5    18.8   606.5 
 271   17:40    0.0    47   29.3    10    267.7    14.1   606.4 
 271   17:50    0.0    46   30.8     8    266.5    11.8   606.5 
 271   18:00    0.0    46   31.5     6    262.2     9.4   606.5 
 271   18:10    0.0    45   31.6     4    276.0     7.1   606.4 
 271   18:20    0.0    45   32.4     5    261.1     9.4   606.5 
 271   18:30    0.0    44   32.9     6    267.7     9.4   606.5 
 271   18:40    0.0    44   33.9     5    266.7     9.4   606.5 
 271   18:50  3802.0    44   33.9     4    324.7     7.1   606.4 
 271   19:00  12320.0    43   34.7     2     23.4     7.1   606.4 
 271   19:10  6473.0    42   37.3     6     26.8     9.4   606.4 
 271   19:20  4724.0    43   37.0     6     30.5     9.4   606.5 
 271   19:30  4169.0    43   36.3     4     22.3     7.1   606.6 
 271   19:40  3797.0    43   36.2     4     28.3     4.7   606.6 
 271   19:50  3429.0    41   38.0     3     45.1     4.7   606.6 
 271   20:00  3308.0    40   38.8     3     65.1     4.7   606.7 
 271   20:10  2907.0    40   38.8     6     49.0     9.4   606.6 
 271   20:20  2048.0    39   37.2     7     50.7    14.1   606.7 
 271   20:30  2044.0    38   35.1     8     38.9    11.8   606.7 
 271   20:40  1955.0    38   35.8     6     43.2     9.4   606.7 
 271   20:50  1750.0    38   36.9     6     64.7     9.4   606.7 
 271   21:00  1672.0    38   36.8    10     63.5    14.1   606.6 
 271   21:10  1690.0    38   36.7    11     63.7    14.1   606.6 
 271   21:20  1294.0    37   38.2    10     59.6    14.1   606.6 
 271   21:30  711.0    37   40.1    10     62.7    14.1   606.5 
 271   21:40  438.0    37   41.8     9     63.6    14.1   606.5 
 271   21:50  414.0    36   44.3     8     64.2    11.8   606.5 
 271   22:00  376.0    36   46.4     9     58.1    14.1   606.4 
 271   22:10  368.0    36   46.6     7     61.8    14.1   606.4 
 271   22:20  353.0    35   46.6     8     74.6    14.1   606.4 
 271   22:30  365.0    35   46.2     7     76.5    11.8   606.4 
 271   22:40  314.0    35   46.3     8     59.5    11.8   606.4 
 271   22:50  318.0    35   46.4    11     52.2    16.5   606.3 
 271   23:00  346.0    35   46.6     8     46.9    14.1   606.3 
 271   23:10  335.0    35   46.7     6     33.1    11.8   606.3 
 271   23:20  327.0    35   46.2     6     79.1    11.8   606.3 
 271   23:30  335.0    35   46.5     5     51.9    11.8   606.3 
 271   23:40  307.0    35   46.8     6     51.5    11.8   606.3 
 271   23:50  269.0    35   46.7     5     38.3     9.4   606.3 
 272    0:00  290.0    35   46.5     4     37.9     7.1   606.3 
 272    0:10  274.0    35   46.3     3      8.5     7.1   606.3 
 272    0:20  295.0    35   46.0     3      2.9     7.1   606.3 
 272    0:30  323.0    34   46.7    10     54.6    14.1   606.2 
 272    0:40  284.0    34   46.8    12     55.5    16.5   606.1 
 272    0:50  309.0    34   46.9    12     56.3    16.5   606.1 
 272    1:00  264.0    34   47.8    10     50.9    16.5   606.1 
 272    1:10  277.0    34   48.3     9     52.3    14.1   606.1 
 272    1:20  318.0    34   48.1     9     54.4    16.5   606.1 
 272    1:30  351.0    34   48.7     8     47.3    11.8   606.1 
 272    1:40  326.0    34   48.4     7     21.3    11.8   606.0 
 272    1:50  328.0    33   49.4     7      5.6    11.8   606.0 
 272    2:00  335.0    34   49.5     8     33.8    14.1   606.0 
 272    2:10  354.0    33   50.7     6    312.2     7.1   605.9 
 272    2:20  371.0    33   51.3     6    338.1    11.8   605.9 
 272    2:30  361.0    33   51.5     7    352.6    11.8   605.8 
 272    2:40  341.0    33   51.9    12     55.4    16.5   605.8 
 272    2:50  367.0    33   52.6    10     61.5    16.5   605.8 
 272    3:00  345.0    32   53.3     9     49.1    11.8   605.8 
 272    3:10  364.0    32   53.9     5     75.4     9.4   605.8 
 272    3:20  401.0    32   53.9     6     47.4    11.8   605.8 
 272    3:30  389.0    32   54.5     8     52.6    11.8   605.8 
 272    3:40  358.0    32   54.3     4    327.8     9.4   605.8 
 272    3:50  361.0    32   54.0     4     54.8     7.1   605.8 
 272    4:00  349.0    32   55.1     4    338.0     7.1   605.8 
 272    4:10  355.0    32   55.8     3    112.5     4.7   605.8 
 272    4:20  353.0    32   55.2     3    297.4     4.7   605.8 
 272    4:30  334.0    32   55.0     2    281.0     4.7   605.8 
 272    4:40  315.0    32   55.4     5     40.6     9.4   605.8 
 272    4:50  332.0    32   56.3     5     43.8    11.8   605.8 
 272    5:00  340.0    31   57.9     6     49.8    11.8   605.8 
 272    5:10  319.0    31   58.3     6     67.9    11.8   605.8 
 272    5:20  357.0    31   59.1     3    276.4     7.1   605.8 
 272    5:30  308.0    31   58.4     3    290.1     4.7   605.9 
 272    5:40  303.0    31   58.2     3    280.0     4.7   605.9 
 272    5:50  351.0    31   59.7     3    237.7     7.1   605.9 
 272    6:00  347.0    31   59.5     3    287.2     7.1   606.0 
 272    6:10  2824.0    31   59.2     4    250.6     7.1   606.0 
 272    6:20  2480.0    31   59.4     3    239.5     4.7   606.0 
 272    6:30    1.0    32   57.5     3    296.7     4.7   606.0 
 272    6:40    1.0    32   56.5     3    314.3     4.7   606.0 
 272    6:50    1.0    32   56.7     4      7.4     9.4   606.0 
 272    7:00    1.0    32   56.2     5     16.2     9.4   606.0 
 272    7:10    1.0    33   55.7     7     67.7    14.1   606.1 
 272    7:20    1.0    33   54.4     8     58.3    11.8   606.1 
 272    7:30    1.0    34   53.5     8     72.3    11.8   606.1 
 272    7:40    1.0    35   52.3    10     66.6    18.8   606.1 
 272    7:50    2.0    35   52.0     9     77.0    18.8   606.2 
 272    8:00    3.0    35   50.8     9     57.8    16.5   606.2 
 272    8:10    2.0    36   50.0     6     37.0     9.4   606.2 
 272    8:20    3.0    36   48.7     7     70.2    11.8   606.2 
 272    8:30    2.0    37   46.3     7     78.1    14.1   606.3 
 272    8:40    0.0    38   44.3     8     90.4    16.5   606.3 
 272    8:50    0.0    39   44.1     8     76.0    21.2   606.3 
 272    9:00    0.0    39   45.3     9     98.8    18.8   606.3 
 272    9:10    0.0    39   47.5     8     86.4    21.2   606.4 
 272    9:20    0.0    41   45.5    11    112.6    16.5   606.4 
 272    9:30    1.0    41   44.7    10    120.6    16.5   606.4 
 272    9:40    1.0    41   45.3    11    125.7    16.5   606.5 
 272    9:50    1.0    42   44.7     7    109.8    16.5   606.5 
 272   10:00    1.0    43   42.4    11    122.4    18.8   606.4 
 272   10:10    0.0    43   41.9    10    126.1    16.5   606.4 
 272   10:20    1.0    44   40.7     7     97.8    14.1   606.3 
 272   10:30    1.0    44   41.2    10    123.6    16.5   606.3 
 272   10:40    0.0    44   40.8     7     77.4    16.5   606.3 
 272   10:50    1.0    45   39.9     8    117.0    14.1   606.3 
 272   11:00    1.0    44   40.9     7    107.8    14.1   606.3 
 272   11:10    1.0    44   40.5     8    125.0    18.8   606.3 
 272   11:20    1.0    44   40.7     7     57.6    16.5   606.3 
 272   11:30    1.0    46   39.2     6     79.4    11.8   606.3 
 272   11:40    0.0    46   37.9     6     48.0    14.1   606.3 
 272   11:50    0.0    46   39.1     7     83.0    11.8   606.3 
 272   12:00    0.0    45   39.8     7    117.1    14.1   606.3 
 272   12:10    1.0    46   38.6     7    111.3    11.8   606.3 
 272   12:20    1.0    45   40.0     6     50.1    11.8   606.2 
 272   12:30    1.0    44   40.8     7    112.2    11.8   606.1 
 272   12:40    0.0    43   42.6     6     67.9     9.4   606.1 
 272   12:50    0.0    43   42.7     5     54.0     9.4   606.1 
 272   13:00    1.0    44   42.2     5     67.6     7.1   606.0 
 272   13:10    0.0    42   44.3     7     68.3    16.5   606.0 
 272   13:20    1.0    41   47.0     8     47.7    16.5   605.9 
 272   13:30    1.0    42   46.9     6     28.7    11.8   605.9 
 272   13:40    1.0    41   48.9     8     44.6    16.5   605.9 
 272   13:50    0.0    41   49.9     7     51.5    11.8   605.9 
 272   14:00    0.0    41   50.5     6     28.8     9.4   605.9 
 272   14:10    1.0    41   49.9     7     31.5    11.8   605.9 
 272   14:20    1.0    41   51.3     9     41.2    11.8   605.8 
 272   14:30    1.0    39   55.3     8     41.7    14.1   605.8 
 272   14:40    1.0    39   56.2     7     27.2    11.8   605.8 
 272   14:50    1.0    40   54.3     6     25.7    11.8   605.8 
 272   15:00  2790.0    39   57.8    12     55.8    16.5   605.6 
 272   15:10  11900.0    38   60.0    12     58.7    16.5   605.6 
 272   15:20  15510.0    37   62.5    12     50.6    16.5   605.5 

Return to White Mountain graphs page.


Western Regional Climate Center,wrcc@dri.edu